^^
Station Historical Data
 
Daily Summary for January 23, 2018 Units:  Metric    English   Both
« Previous Day
Next Day »
Daily Weekly Monthly Yearly Custom
  Current: High: Low: Average:
Temperature: 11.9 °C 12.4 °C 7.7 °C 10.7 °C
Dew Point: 10.6 °C 11.5 °C 6.3 °C 9.7 °C
Humidity: 92% 97% 89% 94%
Wind Speed: 16.1km/h 17.7km/h 3.2km/h 10.5km/h
Wind Gust: 38.6km/h 43.4km/h - -
WindSW - - SW
Pressure: 1014.4 hPa 1018.5 hPa 1013.1 hPa -
Precipitation: 1.5 mm      
Historical Graphs
 
 
Tabular Data for January 23, 2018
Time Temperature Dew Point Pressure Wind Wind Speed Wind Gust Humidity Rainfall Rate (Hourly)
00:00 8.5 °C 6.8 °C 1018.5 hPa SW 6.4 km/h 14.5 km/h 89% 0.0 mm
00:10 8.4 °C 6.7 °C 1018.5 hPa SW 6.4 km/h 12.9 km/h 89% 0.0 mm
00:15 8.3 °C 6.6 °C 1018.5 hPa SW 4.8 km/h 12.9 km/h 89% 0.0 mm
00:20 8.2 °C 6.5 °C 1018.5 hPa SW 3.2 km/h 8.0 km/h 89% 0.0 mm
00:25 8.1 °C 6.6 °C 1018.5 hPa SSW 3.2 km/h 8.0 km/h 90% 0.0 mm
00:30 8.1 °C 6.6 °C 1018.5 hPa SW 4.8 km/h 12.9 km/h 90% 0.0 mm
00:35 8.1 °C 6.5 °C 1018.5 hPa SW 4.8 km/h 12.9 km/h 90% 0.0 mm
00:40 8.0 °C 6.5 °C 1018.5 hPa SSW 4.8 km/h 11.3 km/h 90% 0.0 mm
00:45 8.0 °C 6.6 °C 1018.5 hPa SSW 4.8 km/h 11.3 km/h 91% 0.0 mm
00:55 8.0 °C 6.5 °C 1018.5 hPa SSW 3.2 km/h 9.7 km/h 90% 0.0 mm
01:00 7.9 °C 6.4 °C 1018.5 hPa South 3.2 km/h 9.7 km/h 90% 0.0 mm
01:05 7.9 °C 6.5 °C 1018.5 hPa South 3.2 km/h 8.0 km/h 91% 0.0 mm
01:15 7.7 °C 6.3 °C 1018.2 hPa SW 4.8 km/h 8.0 km/h 91% 0.0 mm
01:20 7.7 °C 6.3 °C 1018.5 hPa SW 4.8 km/h 9.7 km/h 91% 0.0 mm
01:25 7.7 °C 6.3 °C 1018.5 hPa SW 4.8 km/h 9.7 km/h 91% 0.0 mm
01:30 7.7 °C 6.3 °C 1018.5 hPa SW 4.8 km/h 9.7 km/h 91% 0.0 mm
01:35 7.7 °C 6.5 °C 1018.2 hPa SW 4.8 km/h 9.7 km/h 92% 0.0 mm
01:45 7.9 °C 6.6 °C 1018.2 hPa SSW 3.2 km/h 9.7 km/h 91% 0.0 mm
01:50 8.1 °C 6.7 °C 1018.2 hPa SSW 3.2 km/h 8.0 km/h 91% 0.0 mm
01:55 8.2 °C 6.8 °C 1018.2 hPa SW 3.2 km/h 8.0 km/h 91% 0.0 mm
02:00 8.2 °C 6.8 °C 1018.2 hPa SSW 3.2 km/h 9.7 km/h 91% 0.0 mm
02:05 8.3 °C 6.9 °C 1018.2 hPa SSW 3.2 km/h 9.7 km/h 91% 0.0 mm
02:10 8.4 °C 7.0 °C 1018.2 hPa SSW 3.2 km/h 9.7 km/h 91% 0.0 mm
02:15 8.4 °C 7.1 °C 1018.2 hPa SSW 3.2 km/h 9.7 km/h 91% 0.0 mm
02:20 8.6 °C 7.2 °C 1018.2 hPa South 3.2 km/h 9.7 km/h 91% 0.0 mm
02:25 8.6 °C 7.2 °C 1018.2 hPa South 4.8 km/h 9.7 km/h 91% 0.0 mm
02:30 8.7 °C 7.3 °C 1018.2 hPa South 4.8 km/h 9.7 km/h 91% 0.0 mm
02:35 8.7 °C 7.2 °C 1017.8 hPa South 3.2 km/h 9.7 km/h 90% 0.0 mm
02:40 8.7 °C 7.2 °C 1017.8 hPa South 3.2 km/h 8.0 km/h 90% 0.0 mm
02:45 8.7 °C 7.2 °C 1017.8 hPa SSE 3.2 km/h 8.0 km/h 90% 0.0 mm
02:50 8.8 °C 7.2 °C 1017.8 hPa SSE 3.2 km/h 8.0 km/h 90% 0.0 mm
03:00 8.9 °C 7.4 °C 1017.8 hPa SSW 3.2 km/h 11.3 km/h 91% 0.0 mm
03:10 9.1 °C 7.7 °C 1017.8 hPa SSW 6.4 km/h 14.5 km/h 91% 0.0 mm
03:15 9.2 °C 7.8 °C 1017.8 hPa South 6.4 km/h 14.5 km/h 91% 0.0 mm
03:20 9.3 °C 7.9 °C 1017.5 hPa SSW 6.4 km/h 12.9 km/h 91% 0.0 mm
03:25 9.4 °C 8.0 °C 1017.5 hPa SSW 6.4 km/h 14.5 km/h 91% 0.0 mm
03:30 9.4 °C 8.0 °C 1017.5 hPa SSW 8.0 km/h 16.1 km/h 91% 0.0 mm
03:35 9.6 °C 8.2 °C 1017.5 hPa SSW 6.4 km/h 16.1 km/h 91% 0.0 mm
03:40 9.6 °C 8.2 °C 1017.5 hPa SSW 6.4 km/h 14.5 km/h 91% 0.0 mm
03:50 9.7 °C 8.3 °C 1017.2 hPa SSW 9.7 km/h 22.5 km/h 91% 0.0 mm
03:55 9.7 °C 8.3 °C 1017.2 hPa SSW 8.0 km/h 22.5 km/h 91% 0.0 mm
04:00 9.7 °C 8.3 °C 1017.2 hPa SSW 9.7 km/h 22.5 km/h 91% 0.0 mm
04:05 9.7 °C 8.3 °C 1017.2 hPa SSW 8.0 km/h 22.5 km/h 91% 0.0 mm
04:10 9.7 °C 8.3 °C 1017.2 hPa SSW 6.4 km/h 14.5 km/h 91% 0.0 mm
04:15 9.7 °C 8.3 °C 1017.2 hPa SSW 6.4 km/h 12.9 km/h 91% 0.0 mm
04:20 9.7 °C 8.3 °C 1016.8 hPa South 6.4 km/h 16.1 km/h 91% 0.0 mm
04:25 9.8 °C 8.4 °C 1016.8 hPa South 8.0 km/h 17.7 km/h 91% 0.0 mm
04:30 9.7 °C 8.3 °C 1016.8 hPa South 6.4 km/h 17.7 km/h 91% 0.0 mm
04:40 9.8 °C 8.5 °C 1016.8 hPa SSW 8.0 km/h 17.7 km/h 92% 0.0 mm
04:45 9.8 °C 8.5 °C 1016.8 hPa South 8.0 km/h 17.7 km/h 92% 0.0 mm
04:50 9.8 °C 8.5 °C 1016.5 hPa South 9.7 km/h 22.5 km/h 92% 0.0 mm
04:55 9.7 °C 8.5 °C 1016.5 hPa South 9.7 km/h 22.5 km/h 92% 0.0 mm
05:00 9.7 °C 8.5 °C 1016.5 hPa South 9.7 km/h 17.7 km/h 92% 0.0 mm
05:05 9.7 °C 8.5 °C 1016.5 hPa South 8.0 km/h 17.7 km/h 92% 0.0 mm
05:15 9.7 °C 8.6 °C 1016.5 hPa South 8.0 km/h 24.1 km/h 93% 0.0 mm
05:20 9.7 °C 8.6 °C 1016.1 hPa South 6.4 km/h 16.1 km/h 93% 0.0 mm
05:25 9.7 °C 8.6 °C 1016.1 hPa South 6.4 km/h 17.7 km/h 93% 0.3 mm
05:30 9.7 °C 8.6 °C 1016.1 hPa South 8.0 km/h 20.9 km/h 93% 0.5 mm
05:35 9.6 °C 8.5 °C 1016.1 hPa South 8.0 km/h 20.9 km/h 93% 0.5 mm
05:40 9.6 °C 8.7 °C 1016.1 hPa South 8.0 km/h 17.7 km/h 94% 0.5 mm
05:45 9.6 °C 8.6 °C 1015.8 hPa South 8.0 km/h 17.7 km/h 94% 0.5 mm
05:50 9.6 °C 8.7 °C 1016.1 hPa SSW 8.0 km/h 16.1 km/h 94% 0.5 mm
05:55 9.6 °C 8.7 °C 1015.8 hPa SSW 8.0 km/h 20.9 km/h 94% 0.8 mm
06:00 9.6 °C 8.7 °C 1015.8 hPa SSW 8.0 km/h 24.1 km/h 94% 0.8 mm
06:05 9.6 °C 8.7 °C 1015.8 hPa SSW 8.0 km/h 24.1 km/h 94% 0.8 mm
06:10 9.6 °C 8.6 °C 1015.8 hPa SSW 8.0 km/h 20.9 km/h 94% 1.0 mm
06:20 9.5 °C 8.7 °C 1015.8 hPa South 8.0 km/h 22.5 km/h 95% 1.0 mm
06:25 9.4 °C 8.7 °C 1015.8 hPa South 6.4 km/h 16.1 km/h 95% 0.8 mm
06:35 9.4 °C 8.7 °C 1015.8 hPa South 8.0 km/h 22.5 km/h 95% 0.5 mm
06:45 9.5 °C 8.7 °C 1015.8 hPa South 6.4 km/h 17.7 km/h 95% 0.5 mm
06:50 9.5 °C 8.7 °C 1015.8 hPa SSW 4.8 km/h 14.5 km/h 95% 0.5 mm
06:55 9.6 °C 8.8 °C 1015.8 hPa South 4.8 km/h 17.7 km/h 95% 0.3 mm
07:05 9.7 °C 9.1 °C 1015.5 hPa South 6.4 km/h 16.1 km/h 96% 0.3 mm
07:10 9.8 °C 9.2 °C 1015.5 hPa South 6.4 km/h 17.7 km/h 96% 0.3 mm
07:15 9.8 °C 9.2 °C 1015.5 hPa South 6.4 km/h 17.7 km/h 96% 0.3 mm
07:20 9.9 °C 9.3 °C 1015.1 hPa SSW 6.4 km/h 17.7 km/h 96% 0.3 mm
07:30 10.2 °C 9.6 °C 1015.1 hPa SSW 8.0 km/h 22.5 km/h 96% 0.3 mm
07:35 10.2 °C 9.6 °C 1015.1 hPa SSW 9.7 km/h 22.5 km/h 96% 0.3 mm
07:40 10.3 °C 9.7 °C 1014.8 hPa SSW 9.7 km/h 25.7 km/h 96% 0.3 mm
07:45 10.4 °C 9.8 °C 1015.1 hPa SW 11.3 km/h 27.4 km/h 96% 0.3 mm
07:50 10.4 °C 9.8 °C 1015.1 hPa SW 12.9 km/h 27.4 km/h 96% 0.5 mm
07:55 10.5 °C 9.9 °C 1015.1 hPa SW 12.9 km/h 24.1 km/h 96% 0.5 mm
08:05 10.6 °C 10.0 °C 1015.1 hPa SSW 12.9 km/h 22.5 km/h 96% 0.5 mm
08:15 10.7 °C 10.1 °C 1015.1 hPa SSW 12.9 km/h 29.0 km/h 96% 0.3 mm
08:20 10.8 °C 10.2 °C 1015.1 hPa SSW 12.9 km/h 29.0 km/h 96% 0.3 mm
08:30 10.8 °C 10.2 °C 1015.1 hPa SW 12.9 km/h 22.5 km/h 96% 0.3 mm
08:35 10.9 °C 10.3 °C 1015.1 hPa SW 12.9 km/h 22.5 km/h 96% 0.3 mm
08:40 10.9 °C 10.3 °C 1015.1 hPa SW 11.3 km/h 25.7 km/h 96% 0.3 mm
08:45 10.9 °C 10.3 °C 1015.1 hPa SW 11.3 km/h 29.0 km/h 96% 0.0 mm
08:50 11.0 °C 10.4 °C 1014.8 hPa SW 11.3 km/h 29.0 km/h 96% 0.0 mm
09:00 11.1 °C 10.5 °C 1014.8 hPa SW 12.9 km/h 29.0 km/h 96% 0.0 mm
09:05 11.2 °C 10.6 °C 1014.8 hPa SW 14.5 km/h 29.0 km/h 96% 0.0 mm
09:10 11.2 °C 10.6 °C 1014.8 hPa SW 14.5 km/h 25.7 km/h 96% 0.0 mm
09:15 11.3 °C 10.8 °C 1014.8 hPa SW 12.9 km/h 25.7 km/h 97% 0.0 mm
09:20 11.3 °C 10.7 °C 1014.8 hPa SW 12.9 km/h 25.7 km/h 96% 0.0 mm
09:25 11.4 °C 10.8 °C 1014.8 hPa SW 12.9 km/h 27.4 km/h 96% 0.0 mm
09:40 11.5 °C 10.9 °C 1014.8 hPa SW 14.5 km/h 30.6 km/h 96% 0.0 mm
09:45 11.5 °C 10.9 °C 1014.8 hPa SW 14.5 km/h 30.6 km/h 96% 0.0 mm
09:50 11.6 °C 10.9 °C 1014.8 hPa SW 12.9 km/h 29.0 km/h 96% 0.0 mm
09:55 11.6 °C 10.9 °C 1014.8 hPa SW 12.9 km/h 29.0 km/h 96% 0.0 mm
10:00 11.6 °C 11.0 °C 1015.1 hPa SW 12.9 km/h 29.0 km/h 96% 0.0 mm
10:05 11.6 °C 11.0 °C 1015.1 hPa SW 11.3 km/h 22.5 km/h 96% 0.0 mm
10:10 11.7 °C 11.1 °C 1015.1 hPa SW 11.3 km/h 24.1 km/h 96% 0.0 mm
10:15 11.7 °C 11.1 °C 1015.1 hPa SW 12.9 km/h 27.4 km/h 96% 0.0 mm
10:20 11.7 °C 11.1 °C 1014.8 hPa SW 12.9 km/h 27.4 km/h 96% 0.0 mm
10:25 11.7 °C 11.1 °C 1015.1 hPa SW 12.9 km/h 29.0 km/h 96% 0.0 mm
10:35 11.7 °C 11.1 °C 1014.8 hPa SW 11.3 km/h 25.7 km/h 96% 0.3 mm
10:40 11.7 °C 11.1 °C 1014.8 hPa SW 12.9 km/h 27.4 km/h 96% 0.3 mm
10:45 11.7 °C 11.1 °C 1014.8 hPa SW 12.9 km/h 27.4 km/h 96% 0.3 mm
10:50 11.8 °C 11.2 °C 1014.8 hPa SW 12.9 km/h 30.6 km/h 96% 0.3 mm
10:55 11.8 °C 11.2 °C 1014.8 hPa SW 12.9 km/h 30.6 km/h 96% 0.3 mm
11:00 11.8 °C 11.2 °C 1014.8 hPa SW 12.9 km/h 33.8 km/h 96% 0.3 mm
11:05 11.8 °C 11.2 °C 1014.8 hPa SW 12.9 km/h 33.8 km/h 96% 0.3 mm
11:10 11.8 °C 11.2 °C 1014.8 hPa SW 12.9 km/h 30.6 km/h 96% 0.3 mm
11:15 11.8 °C 11.2 °C 1014.4 hPa SW 14.5 km/h 30.6 km/h 96% 0.3 mm
11:30 11.8 °C 11.2 °C 1014.1 hPa SW 14.5 km/h 29.0 km/h 96% 0.3 mm
11:35 11.8 °C 11.2 °C 1014.4 hPa SW 17.7 km/h 35.4 km/h 96% 0.0 mm
11:40 11.8 °C 11.2 °C 1014.1 hPa SW 16.1 km/h 35.4 km/h 96% 0.0 mm
11:45 11.9 °C 11.3 °C 1014.1 hPa SW 16.1 km/h 35.4 km/h 96% 0.0 mm
11:50 11.9 °C 11.3 °C 1014.1 hPa SW 14.5 km/h 35.4 km/h 96% 0.0 mm
11:55 11.9 °C 11.3 °C 1014.1 hPa SW 16.1 km/h 35.4 km/h 96% 0.0 mm
12:00 11.9 °C 11.3 °C 1014.1 hPa SW 17.7 km/h 35.4 km/h 96% 0.0 mm
12:05 11.9 °C 11.2 °C 1014.1 hPa SW 14.5 km/h 33.8 km/h 95% 0.0 mm
12:10 11.9 °C 11.2 °C 1014.1 hPa SW 14.5 km/h 30.6 km/h 95% 0.0 mm
12:20 12.0 °C 11.2 °C 1013.8 hPa SW 14.5 km/h 37.0 km/h 95% 0.0 mm
12:25 12.1 °C 11.3 °C 1013.8 hPa SW 12.9 km/h 37.0 km/h 95% 0.0 mm
12:35 12.2 °C 11.4 °C 1013.8 hPa WSW 11.3 km/h 29.0 km/h 95% 0.0 mm
12:40 12.2 °C 11.3 °C 1013.8 hPa WSW 12.9 km/h 33.8 km/h 94% 0.0 mm
12:55 12.2 °C 11.3 °C 1013.8 hPa SW 14.5 km/h 30.6 km/h 94% 0.0 mm
13:00 12.2 °C 11.3 °C 1013.8 hPa SW 14.5 km/h 30.6 km/h 94% 0.0 mm
13:05 12.2 °C 11.3 °C 1013.8 hPa WSW 12.9 km/h 29.0 km/h 94% 0.0 mm
13:15 12.2 °C 11.3 °C 1013.8 hPa WSW 14.5 km/h 37.0 km/h 94% 0.0 mm
13:25 12.3 °C 11.2 °C 1013.8 hPa SW 11.3 km/h 29.0 km/h 93% 0.0 mm
13:30 12.3 °C 11.2 °C 1013.8 hPa SW 12.9 km/h 29.0 km/h 93% 0.0 mm
13:35 12.3 °C 11.2 °C 1013.4 hPa SW 11.3 km/h 29.0 km/h 93% 0.0 mm
13:40 12.3 °C 11.3 °C 1013.4 hPa WSW 11.3 km/h 25.7 km/h 94% 0.0 mm
13:45 12.3 °C 11.3 °C 1013.4 hPa SW 12.9 km/h 24.1 km/h 94% 0.0 mm
13:50 12.3 °C 11.3 °C 1013.4 hPa SW 11.3 km/h 22.5 km/h 94% 0.0 mm
13:55 12.3 °C 11.4 °C 1013.4 hPa SW 9.7 km/h 24.1 km/h 94% 0.0 mm
14:00 12.3 °C 11.4 °C 1013.4 hPa SW 9.7 km/h 24.1 km/h 94% 0.0 mm
14:10 12.3 °C 11.4 °C 1013.4 hPa SW 11.3 km/h 25.7 km/h 94% 0.0 mm
14:15 12.3 °C 11.4 °C 1013.1 hPa SW 12.9 km/h 29.0 km/h 94% 0.0 mm
14:20 12.4 °C 11.5 °C 1013.1 hPa SW 11.3 km/h 29.0 km/h 94% 0.0 mm
14:25 12.3 °C 11.4 °C 1013.1 hPa SSW 9.7 km/h 17.7 km/h 94% 0.0 mm
14:30 12.3 °C 11.4 °C 1013.1 hPa SSW 11.3 km/h 22.5 km/h 94% 0.0 mm
14:40 12.3 °C 11.3 °C 1013.1 hPa SW 9.7 km/h 20.9 km/h 94% 0.0 mm
14:45 12.3 °C 11.3 °C 1013.1 hPa SW 12.9 km/h 35.4 km/h 94% 0.0 mm
14:50 12.3 °C 11.3 °C 1013.1 hPa SW 14.5 km/h 35.4 km/h 94% 0.0 mm
14:55 12.2 °C 11.4 °C 1013.1 hPa SW 14.5 km/h 33.8 km/h 95% 0.0 mm
15:00 12.3 °C 11.5 °C 1013.1 hPa SW 14.5 km/h 35.4 km/h 95% 0.0 mm
15:05 12.3 °C 11.5 °C 1013.1 hPa SW 17.7 km/h 38.6 km/h 95% 0.0 mm
15:10 12.3 °C 11.5 °C 1013.1 hPa SW 14.5 km/h 38.6 km/h 95% 0.0 mm
15:20 12.2 °C 11.4 °C 1013.1 hPa SW 17.7 km/h 38.6 km/h 95% 0.0 mm
15:25 12.2 °C 11.4 °C 1013.1 hPa SW 16.1 km/h 37.0 km/h 95% 0.0 mm
15:30 12.2 °C 11.4 °C 1013.1 hPa SW 16.1 km/h 38.6 km/h 95% 0.0 mm
15:40 12.2 °C 11.4 °C 1013.1 hPa SW 16.1 km/h 33.8 km/h 95% 0.0 mm
15:45 12.2 °C 11.4 °C 1013.1 hPa SW 16.1 km/h 37.0 km/h 95% 0.0 mm
15:50 12.2 °C 11.4 °C 1013.1 hPa SW 16.1 km/h 37.0 km/h 95% 0.0 mm
16:05 12.2 °C 11.3 °C 1013.1 hPa SW 17.7 km/h 43.4 km/h 94% 0.0 mm
16:10 12.2 °C 11.3 °C 1013.1 hPa SW 17.7 km/h 33.8 km/h 94% 0.0 mm
16:15 12.2 °C 11.3 °C 1013.1 hPa SW 16.1 km/h 33.8 km/h 94% 0.0 mm
16:20 12.2 °C 11.3 °C 1013.1 hPa SW 14.5 km/h 30.6 km/h 94% 0.0 mm
16:30 12.2 °C 11.3 °C 1013.4 hPa SW 12.9 km/h 25.7 km/h 94% 0.0 mm
16:40 12.2 °C 11.1 °C 1013.4 hPa SW 12.9 km/h 29.0 km/h 93% 0.0 mm
16:45 12.2 °C 11.1 °C 1013.4 hPa SW 12.9 km/h 30.6 km/h 93% 0.0 mm
16:50 12.2 °C 11.1 °C 1013.4 hPa SW 12.9 km/h 30.6 km/h 93% 0.0 mm
16:55 12.2 °C 11.1 °C 1013.4 hPa SW 12.9 km/h 24.1 km/h 93% 0.0 mm
17:00 12.1 °C 11.2 °C 1013.4 hPa WSW 12.9 km/h 25.7 km/h 94% 0.0 mm
17:05 12.1 °C 11.2 °C 1013.8 hPa WSW 12.9 km/h 30.6 km/h 94% 0.0 mm
17:10 12.1 °C 11.2 °C 1013.8 hPa WSW 14.5 km/h 30.6 km/h 94% 0.0 mm
17:20 12.2 °C 11.2 °C 1013.8 hPa SW 16.1 km/h 35.4 km/h 94% 0.0 mm
17:30 12.1 °C 11.2 °C 1014.1 hPa WSW 14.5 km/h 30.6 km/h 94% 0.0 mm
17:35 12.1 °C 11.2 °C 1014.1 hPa WSW 12.9 km/h 30.6 km/h 94% 0.0 mm
17:40 12.1 °C 11.2 °C 1014.1 hPa WSW 12.9 km/h 30.6 km/h 94% 0.0 mm
17:45 12.1 °C 11.0 °C 1014.1 hPa WSW 14.5 km/h 30.6 km/h 93% 0.0 mm
17:50 12.1 °C 11.0 °C 1014.1 hPa WSW 11.3 km/h 27.4 km/h 93% 0.0 mm
17:55 12.1 °C 11.0 °C 1014.1 hPa WSW 12.9 km/h 40.2 km/h 93% 0.0 mm
18:00 12.1 °C 11.0 °C 1014.1 hPa SW 14.5 km/h 40.2 km/h 93% 0.0 mm
18:10 12.0 °C 10.9 °C 1014.1 hPa SW 14.5 km/h 29.0 km/h 93% 0.0 mm
18:15 12.0 °C 10.9 °C 1014.1 hPa SW 16.1 km/h 35.4 km/h 93% 0.0 mm
18:20 12.0 °C 10.9 °C 1014.1 hPa SW 16.1 km/h 35.4 km/h 93% 0.0 mm
18:30 12.0 °C 10.9 °C 1014.1 hPa SW 14.5 km/h 37.0 km/h 93% 0.0 mm
18:35 12.0 °C 10.9 °C 1014.1 hPa SW 14.5 km/h 35.4 km/h 93% 0.0 mm
18:40 11.9 °C 10.8 °C 1014.1 hPa SW 16.1 km/h 33.8 km/h 93% 0.0 mm
18:50 11.9 °C 10.7 °C 1014.1 hPa SW 14.5 km/h 24.1 km/h 92% 0.0 mm
18:55 11.9 °C 10.7 °C 1014.1 hPa WSW 12.9 km/h 25.7 km/h 92% 0.0 mm
19:00 11.9 °C 10.6 °C 1014.4 hPa WSW 12.9 km/h 29.0 km/h 92% 0.0 mm
19:05 11.9 °C 10.7 °C 1014.4 hPa WSW 14.5 km/h 29.0 km/h 92% 0.0 mm
19:15 11.9 °C 10.6 °C 1014.1 hPa SW 12.9 km/h 29.0 km/h 92% 0.0 mm
19:20 11.9 °C 10.6 °C 1014.4 hPa SW 16.1 km/h 38.6 km/h 92% 0.0 mm
Fordingbridge UK
Compliments of Weather Underground - 2 mb